Time;durP1;ratioP1;P1;durP2;ratioP2;P2;SDS_P1;SDS_P2;PMS_P1;PMS_P2;Temp;Humidity;BMP_temperature;BMP_pressure;BME280_temperature;BME280_humidity;BME280_pressure;Samples;Min_cycle;Max_cycle;Signal;HPM_P1;HPM_P2
2021/06/10 04:10:26;;;;;;;6.25;2.92;;;23.20;71.60;;;;;;6276824;22;96974;-78
2021/06/10 04:12:52;;;;;;;6.40;2.70;;;23.20;71.20;;;;;;6214063;23;20020;-77
2021/06/10 04:15:17;;;;;;;7.70;2.92;;;23.30;71.10;;;;;;6244692;23;20011;-77
2021/06/10 04:17:44;;;;;;;9.98;2.70;;;23.30;70.90;;;;;;6249688;22;20000;-76
2021/06/10 04:20:10;;;;;;;8.32;3.00;;;23.30;71.20;;;;;;6278139;22;20074;-76
2021/06/10 04:22:39;;;;;;;6.90;3.33;;;23.20;71.10;;;;;;6276928;22;20102;-81
2021/06/10 04:25:17;;;;;;;11.05;2.60;;;23.30;71.30;;;;;;6282442;22;20330;-84
2021/06/10 04:28:07;;;;;;;11.13;3.28;;;23.30;71.30;;;;;;6282948;22;20034;-82
2021/06/10 04:30:33;;;;;;;7.35;3.28;;;23.30;71.30;;;;;;6283871;22;20423;-77
2021/06/10 04:32:58;;;;;;;10.57;3.30;;;23.20;71.40;;;;;;6249145;22;20011;-79
2021/06/10 04:35:24;;;;;;;8.52;3.40;;;23.30;71.70;;;;;;6276474;22;20078;-77
2021/06/10 04:37:49;;;;;;;17.65;6.78;;;23.30;71.70;;;;;;6276201;22;20010;-79
2021/06/10 04:40:15;;;;;;;19.63;6.93;;;23.30;71.60;;;;;;6276179;22;20000;-76
2021/06/10 04:42:41;;;;;;;18.40;5.07;;;23.30;71.70;;;;;;6276038;22;20377;-77
2021/06/10 04:45:07;;;;;;;15.20;6.03;;;23.20;71.60;;;;;;6276294;22;20416;-78
2021/06/10 04:47:32;;;;;;;15.50;6.03;;;23.20;71.80;;;;;;6276442;22;20007;-77
2021/06/10 04:49:58;;;;;;;15.70;5.18;;;23.20;71.90;;;;;;6275981;22;20119;-77
2021/06/10 04:52:24;;;;;;;14.65;5.65;;;23.20;71.90;;;;;;6276815;22;20758;-77
2021/06/10 04:54:49;;;;;;;14.88;4.55;;;23.20;72.00;;;;;;6276437;22;20426;-77
2021/06/10 04:57:15;;;;;;;11.45;4.10;;;23.20;71.90;;;;;;6248200;22;20031;-80
2021/06/10 04:59:41;;;;;;;12.52;4.63;;;23.20;71.90;;;;;;6275884;22;19996;-78
2021/06/10 05:02:06;;;;;;;20.10;4.38;;;23.20;71.90;;;;;;6281607;22;20015;-77
2021/06/10 05:04:32;;;;;;;9.93;4.95;;;23.20;72.10;;;;;;6276136;22;20399;-77
2021/06/10 05:06:58;;;;;;;9.43;3.88;;;23.20;71.90;;;;;;6274368;22;20000;-77
2021/06/10 05:09:23;;;;;;;9.10;4.78;;;23.20;71.70;;;;;;6262221;22;20000;-77
2021/06/10 05:11:49;;;;;;;9.35;4.03;;;23.20;71.70;;;;;;6261323;22;20042;-77
2021/06/10 05:14:16;;;;;;;10.73;5.10;;;23.20;71.70;;;;;;6292041;22;20099;-77
2021/06/10 05:16:41;;;;;;;10.45;4.35;;;23.20;71.80;;;;;;6293951;22;20004;-77
2021/06/10 05:19:07;;;;;;;10.13;4.68;;;23.10;71.70;;;;;;6293697;22;20053;-77
2021/06/10 05:21:33;;;;;;;11.10;4.40;;;23.20;71.80;;;;;;6293727;22;20011;-77
2021/06/10 05:23:58;;;;;;;9.52;4.22;;;23.20;71.80;;;;;;6293967;22;19996;-77
2021/06/10 05:26:24;;;;;;;13.63;4.63;;;23.20;71.80;;;;;;6266612;22;20095;-77
2021/06/10 05:28:53;;;;;;;10.00;4.32;;;23.20;71.80;;;;;;6241068;22;20273;-79
2021/06/10 05:31:20;;;;;;;9.98;3.40;;;23.10;71.70;;;;;;6268961;22;19995;-77
2021/06/10 05:33:45;;;;;;;7.95;4.20;;;23.20;71.70;;;;;;6245884;22;20074;-77
2021/06/10 05:36:11;;;;;;;9.27;4.32;;;23.20;71.70;;;;;;6298094;22;20076;-77
2021/06/10 05:38:36;;;;;;;11.55;3.70;;;23.10;71.60;;;;;;6244910;22;20007;-77
2021/06/10 05:41:02;;;;;;;7.47;3.38;;;23.10;71.60;;;;;;6297853;22;20078;-77
2021/06/10 05:43:28;;;;;;;6.60;3.50;;;23.20;71.70;;;;;;6297797;22;20003;-77
2021/06/10 05:45:54;;;;;;;6.45;3.47;;;23.10;71.60;;;;;;6297993;22;19995;-77
2021/06/10 05:48:20;;;;;;;8.52;4.45;;;23.10;71.60;;;;;;6270528;22;20716;-77
2021/06/10 05:50:45;;;;;;;8.75;3.65;;;23.10;71.60;;;;;;6270713;22;20074;-77
2021/06/10 05:53:11;;;;;;;8.20;3.90;;;23.10;71.60;;;;;;6219886;22;20592;-77
2021/06/10 05:55:37;;;;;;;10.23;3.67;;;23.10;71.70;;;;;;6245382;22;19999;-77
2021/06/10 05:58:03;;;;;;;7.15;3.35;;;23.20;71.70;;;;;;6270276;22;20473;-77
2021/06/10 06:00:29;;;;;;;5.57;3.33;;;23.10;71.60;;;;;;6270581;22;20000;-77
2021/06/10 06:02:54;;;;;;;7.13;3.90;;;23.10;71.60;;;;;;6270093;22;20011;-77
2021/06/10 06:05:20;;;;;;;7.25;3.75;;;23.10;71.60;;;;;;6270557;22;19999;-77
2021/06/10 06:07:45;;;;;;;5.75;3.15;;;23.10;71.60;;;;;;6297633;22;20070;-77
2021/06/10 06:10:12;;;;;;;8.80;3.42;;;23.10;71.60;;;;;;6297248;22;20070;-77
2021/06/10 06:12:40;;;;;;;6.85;3.33;;;23.10;71.60;;;;;;6270457;22;20015;-77
2021/06/10 06:15:07;;;;;;;9.80;3.83;;;23.10;71.60;;;;;;6297523;22;20545;-77
2021/06/10 06:17:33;;;;;;;7.35;3.63;;;23.10;71.50;;;;;;6244889;22;20035;-77
2021/06/10 06:19:58;;;;;;;8.05;2.95;;;23.10;71.50;;;;;;6270418;22;20002;-77
2021/06/10 06:22:26;;;;;;;5.72;3.55;;;23.10;71.50;;;;;;6244812;22;20018;-77
2021/06/10 06:24:51;;;;;;;7.03;3.05;;;23.10;71.50;;;;;;6297530;22;19995;-77
2021/06/10 06:27:18;;;;;;;6.43;3.47;;;23.10;71.50;;;;;;6269996;22;20000;-77
2021/06/10 06:29:43;;;;;;;6.57;3.47;;;23.20;71.60;;;;;;6297298;22;20078;-77
2021/06/10 06:32:09;;;;;;;6.32;3.45;;;23.10;71.50;;;;;;6270342;22;20034;-77
2021/06/10 06:34:34;;;;;;;8.98;4.30;;;23.10;71.50;;;;;;6244557;22;20509;-78
2021/06/10 06:37:00;;;;;;;5.78;3.05;;;23.10;71.50;;;;;;6297333;22;20007;-77
2021/06/10 06:39:25;;;;;;;5.60;3.10;;;23.10;72.00;;;;;;6244593;22;20457;-77
2021/06/10 06:41:51;;;;;;;7.68;2.92;;;23.10;71.50;;;;;;6242191;22;20030;-77
2021/06/10 06:44:17;;;;;;;6.57;3.08;;;23.10;71.40;;;;;;6295412;22;20022;-77
2021/06/10 06:46:43;;;;;;;6.15;3.15;;;23.10;71.50;;;;;;6267729;22;19999;-77
2021/06/10 06:49:08;;;;;;;6.40;3.50;;;23.10;71.50;;;;;;6242095;22;20007;-77
2021/06/10 06:51:34;;;;;;;6.25;3.33;;;23.10;71.40;;;;;;6268248;22;19999;-77
2021/06/10 06:53:59;;;;;;;6.95;2.97;;;23.10;71.40;;;;;;6242139;22;20547;-77
2021/06/10 06:56:25;;;;;;;5.50;2.85;;;23.10;71.50;;;;;;6242506;22;19996;-76
2021/06/10 06:58:51;;;;;;;6.03;2.70;;;23.10;71.40;;;;;;6242237;22;20334;-77
2021/06/10 07:01:17;;;;;;;5.80;2.90;;;23.10;71.50;;;;;;6217317;22;20196;-77
2021/06/10 07:03:42;;;;;;;6.40;3.15;;;23.10;71.50;;;;;;6295173;22;20010;-77
2021/06/10 07:06:08;;;;;;;6.13;3.25;;;23.10;71.50;;;;;;6295142;22;19995;-77
2021/06/10 07:08:34;;;;;;;4.88;2.75;;;23.10;71.50;;;;;;6295138;22;20022;-77
2021/06/10 07:11:00;;;;;;;5.95;2.97;;;23.10;71.50;;;;;;6242100;22;20593;-77
2021/06/10 07:13:25;;;;;;;7.55;3.25;;;23.10;71.50;;;;;;6254917;22;20042;-77
2021/06/10 07:15:51;;;;;;;5.72;2.97;;;23.10;72.10;;;;;;6267907;22;20209;-77
2021/06/10 07:18:17;;;;;;;5.22;2.90;;;23.10;71.40;;;;;;6267281;22;20424;-77
2021/06/10 07:20:43;;;;;;;6.28;3.60;;;23.10;71.40;;;;;;6241910;22;20253;-76
2021/06/10 07:23:08;;;;;;;4.55;2.53;;;23.10;71.40;;;;;;6294944;22;20037;-77
2021/06/10 07:25:34;;;;;;;5.88;2.92;;;23.10;71.40;;;;;;6294627;22;19999;-77
2021/06/10 07:28:00;;;;;;;6.57;3.17;;;23.10;71.40;;;;;;6267582;22;20005;-77
2021/06/10 07:31:20;;;;;;;5.70;2.92;;;23.10;70.90;;;;;;5114875;27;20379;-76
2021/06/10 07:34:27;;;;;;;5.95;3.50;;;23.10;70.90;;;;;;5114893;27;20401;-76
2021/06/10 07:36:53;;;;;;;6.63;3.10;;;23.10;71.40;;;;;;5097975;28;20036;-76
2021/06/10 07:39:18;;;;;;;6.60;2.80;;;23.10;71.30;;;;;;5097717;28;20032;-76
2021/06/10 07:41:44;;;;;;;5.68;3.28;;;23.10;71.30;;;;;;5063796;28;20100;-76
2021/06/10 07:44:09;;;;;;;5.78;3.17;;;23.10;71.30;;;;;;5097578;28;20016;-76
2021/06/10 07:46:35;;;;;;;5.57;2.63;;;23.10;71.30;;;;;;5098838;28;20027;-76
2021/06/10 07:49:02;;;;;;;4.95;3.00;;;23.10;71.30;;;;;;5097670;28;20043;-77
2021/06/10 07:51:27;;;;;;;6.35;3.40;;;23.10;71.30;;;;;;5097727;28;20020;-76
2021/06/10 07:53:53;;;;;;;5.63;3.08;;;23.10;71.30;;;;;;5097659;28;20051;-76
2021/06/10 07:56:18;;;;;;;6.22;2.85;;;23.10;71.30;;;;;;5099013;28;20904;-76
2021/06/10 07:58:44;;;;;;;5.90;3.05;;;23.10;71.30;;;;;;5097451;28;20113;-76
2021/06/10 08:01:10;;;;;;;5.28;2.80;;;23.10;71.30;;;;;;5097596;28;20205;-76
2021/06/10 08:03:35;;;;;;;5.32;2.47;;;23.10;71.20;;;;;;5097501;28;20020;-77
2021/06/10 08:06:01;;;;;;;5.53;2.67;;;23.10;71.20;;;;;;5097412;28;20375;-77
2021/06/10 08:08:27;;;;;;;5.13;2.90;;;23.10;71.20;;;;;;5098678;28;20031;-76
2021/06/10 08:10:53;;;;;;;4.50;2.50;;;23.10;71.20;;;;;;5098442;28;20390;-76
2021/06/10 08:13:21;;;;;;;3.85;2.25;;;23.10;71.10;;;;;;5097199;28;20043;-76
2021/06/10 08:15:47;;;;;;;6.30;2.55;;;23.10;71.20;;;;;;5080526;28;20490;-76
2021/06/10 08:18:13;;;;;;;4.65;2.85;;;23.10;71.20;;;;;;5080071;28;20031;-76
2021/06/10 08:20:39;;;;;;;4.45;2.50;;;23.10;71.20;;;;;;5098284;28;20026;-76
2021/06/10 08:23:04;;;;;;;5.97;2.80;;;23.10;71.20;;;;;;5096809;28;20235;-76
2021/06/10 08:28:04;;;;;;;4.45;2.30;;;23.10;70.80;;;;;;5110722;27;20451;-76
2021/06/10 08:30:31;;;;;;;4.65;2.40;;;23.10;71.30;;;;;;5077665;28;20329;-76
2021/06/10 08:32:57;;;;;;;4.97;2.60;;;23.10;71.20;;;;;;5077461;28;20021;-77
2021/06/10 08:35:22;;;;;;;4.90;2.70;;;23.10;71.20;;;;;;5060599;28;20036;-76
2021/06/10 08:37:48;;;;;;;4.75;2.75;;;23.10;71.20;;;;;;5077295;28;20024;-76
2021/06/10 08:40:14;;;;;;;4.43;2.42;;;23.10;71.20;;;;;;5077255;28;20089;-76
2021/06/10 08:42:43;;;;;;;4.68;2.80;;;23.10;71.20;;;;;;5077306;28;20015;-77
2021/06/10 08:45:14;;;;;;;4.38;2.50;;;23.10;71.20;;;;;;5077113;28;20305;-76
2021/06/10 08:47:41;;;;;;;4.70;2.78;;;23.10;71.20;;;;;;5077022;28;20082;-76
2021/06/10 08:50:08;;;;;;;3.88;2.22;;;23.10;71.20;;;;;;5060154;28;20267;-76
2021/06/10 08:52:33;;;;;;;5.60;2.60;;;23.10;71.20;;;;;;5078288;28;20262;-76
2021/06/10 08:54:59;;;;;;;4.35;2.65;;;23.10;71.20;;;;;;5077009;28;20090;-76
2021/06/10 08:57:25;;;;;;;5.45;2.78;;;23.10;71.20;;;;;;5077000;28;20032;-76
2021/06/10 08:59:51;;;;;;;5.10;2.60;;;23.10;71.20;;;;;;5076863;28;20031;-76
2021/06/10 09:02:16;;;;;;;4.38;2.35;;;23.10;71.20;;;;;;5060062;28;20099;-76
2021/06/10 09:04:42;;;;;;;4.65;2.30;;;23.10;71.10;;;;;;5060106;28;20055;-76
2021/06/10 09:07:09;;;;;;;6.07;3.08;;;23.10;71.10;;;;;;5078303;28;20032;-77
2021/06/10 09:09:41;;;;;;;4.28;2.58;;;23.10;71.10;;;;;;5078092;28;20013;-76
2021/06/10 09:12:09;;;;;;;4.00;2.58;;;23.10;71.10;;;;;;5060930;28;20302;-78
2021/06/10 09:14:54;;;;;;;4.10;2.35;;;23.10;71.10;;;;;;5077362;28;20043;-76
2021/06/10 09:17:33;;;;;;;3.90;2.47;;;23.10;71.10;;;;;;5078594;28;20020;-77
2021/06/10 09:19:59;;;;;;;3.80;2.42;;;23.10;71.10;;;;;;5078526;28;20027;-77
2021/06/10 09:22:29;;;;;;;4.55;2.33;;;23.10;71.10;;;;;;5078473;28;20017;-76
2021/06/10 09:25:09;;;;;;;4.65;2.67;;;23.10;71.10;;;;;;5078315;28;20028;-77
2021/06/10 09:27:34;;;;;;;4.45;2.17;;;23.10;71.10;;;;;;5078025;28;20048;-77
2021/06/10 09:30:00;;;;;;;3.92;2.40;;;23.10;71.10;;;;;;5078192;28;20493;-78
2021/06/10 09:32:27;;;;;;;5.13;2.72;;;23.10;71.10;;;;;;5078350;28;20433;-76
2021/06/10 09:35:05;;;;;;;3.75;2.15;;;23.10;71.10;;;;;;5078047;28;20457;-77
2021/06/10 09:37:35;;;;;;;5.18;2.42;;;23.10;71.10;;;;;;5058692;28;20020;-77
2021/06/10 09:40:19;;;;;;;4.18;2.33;;;23.10;71.00;;;;;;5064517;28;20038;-76
2021/06/10 09:42:45;;;;;;;3.40;1.92;;;23.10;71.00;;;;;;5064310;28;20035;-76
2021/06/10 09:45:12;;;;;;;3.92;2.28;;;23.10;71.00;;;;;;5062760;28;20383;-76
2021/06/10 09:47:40;;;;;;;3.45;2.08;;;23.10;71.00;;;;;;5062579;28;20036;-77
2021/06/10 09:50:22;;;;;;;5.65;2.55;;;23.10;70.90;;;;;;5062596;28;20025;-76
2021/06/10 09:52:49;;;;;;;3.33;2.03;;;23.10;71.00;;;;;;5064127;28;20038;-76
2021/06/10 09:55:30;;;;;;;4.00;2.30;;;23.10;71.00;;;;;;5062600;28;20190;-76
2021/06/10 09:58:05;;;;;;;4.10;2.53;;;23.10;71.00;;;;;;5063787;28;20021;-76
2021/06/10 10:00:30;;;;;;;4.55;2.47;;;23.10;70.90;;;;;;5062513;28;20798;-76
2021/06/10 10:02:56;;;;;;;3.85;2.15;;;23.10;70.90;;;;;;5062518;28;20121;-76
2021/06/10 10:05:25;;;;;;;4.03;2.25;;;23.10;70.90;;;;;;5062290;28;20051;-77
2021/06/10 10:07:52;;;;;;;4.38;2.20;;;23.10;70.90;;;;;;5062221;28;20075;-76
2021/06/10 10:10:18;;;;;;;3.90;2.10;;;23.10;70.90;;;;;;5063484;28;20150;-76
2021/06/10 10:12:45;;;;;;;4.68;2.17;;;23.10;70.90;;;;;;5062207;28;20099;-76
2021/06/10 10:15:11;;;;;;;4.25;2.15;;;23.10;70.90;;;;;;5063367;28;20476;-76
2021/06/10 10:17:37;;;;;;;3.90;2.10;;;23.10;70.90;;;;;;5062022;28;20031;-76
2021/06/10 10:20:04;;;;;;;3.95;2.40;;;23.10;70.90;;;;;;5061979;28;20017;-77
2021/06/10 10:22:30;;;;;;;4.45;2.30;;;23.10;70.90;;;;;;5062167;28;20165;-76
2021/06/10 10:24:58;;;;;;;4.30;2.38;;;23.10;70.90;;;;;;5063316;28;20032;-76
2021/06/10 10:27:23;;;;;;;4.13;2.35;;;23.10;70.90;;;;;;5062039;28;20037;-76
2021/06/10 10:29:49;;;;;;;3.83;2.35;;;23.10;70.90;;;;;;5062055;28;20147;-76
2021/06/10 10:32:20;;;;;;;4.03;2.33;;;23.10;70.90;;;;;;5045380;28;20049;-76
2021/06/10 10:34:45;;;;;;;3.63;2.08;;;23.10;70.90;;;;;;5061913;28;20459;-76
2021/06/10 10:37:21;;;;;;;4.63;2.30;;;23.10;70.90;;;;;;5061837;28;20150;-76
2021/06/10 10:39:47;;;;;;;3.45;1.80;;;23.10;70.90;;;;;;5045043;28;20035;-76
2021/06/10 10:42:33;;;;;;;3.63;2.42;;;23.10;71.00;;;;;;5061649;28;20020;-76
2021/06/10 10:45:21;;;;;;;4.03;1.90;;;23.10;70.90;;;;;;5061747;28;20028;-76
2021/06/10 10:48:03;;;;;;;3.60;2.15;;;23.20;71.00;;;;;;5044709;28;20041;-76
2021/06/10 10:50:32;;;;;;;4.45;2.10;;;23.10;70.90;;;;;;5045394;28;20437;-76
2021/06/10 10:52:59;;;;;;;4.43;2.58;;;23.20;70.90;;;;;;5062708;28;20456;-77
2021/06/10 10:55:28;;;;;;;3.78;2.10;;;23.20;70.90;;;;;;5061370;28;20020;-77
2021/06/10 10:58:02;;;;;;;3.95;2.35;;;23.20;70.90;;;;;;5061440;28;20063;-77
2021/06/10 11:00:53;;;;;;;3.78;2.15;;;23.10;70.90;;;;;;5061227;28;20042;-76
2021/06/10 11:03:33;;;;;;;4.05;1.92;;;23.20;70.90;;;;;;5061137;28;20116;-77
2021/06/10 11:06:20;;;;;;;3.53;2.00;;;23.20;70.90;;;;;;5061132;28;20024;-77
2021/06/10 11:09:15;;;;;;;3.65;2.00;;;23.10;70.90;;;;;;5053837;28;20072;-77
2021/06/10 11:11:59;;;;;;;;;;;23.10;70.90;;;;;;5062629;28;20028;-76
2021/06/10 11:14:37;;;;;;;4.78;2.33;;;23.20;70.90;;;;;;5061084;28;20029;-77
2021/06/10 11:17:17;;;;;;;3.70;2.10;;;23.20;70.90;;;;;;5062271;28;20120;-76
2021/06/10 11:20:00;;;;;;;3.85;2.22;;;23.20;71.00;;;;;;5060965;28;20067;-76
2021/06/10 11:22:29;;;;;;;3.50;2.00;;;23.10;70.90;;;;;;5044356;28;20036;-76
2021/06/10 11:24:55;;;;;;;3.33;1.88;;;23.20;70.90;;;;;;5044798;28;20024;-77
2021/06/10 11:27:46;;;;;;;3.47;1.95;;;23.20;70.90;;;;;;5060730;28;20063;-77
2021/06/10 11:30:22;;;;;;;3.70;2.28;;;23.10;70.90;;;;;;5062478;28;20035;-77
2021/06/10 11:32:57;;;;;;;4.32;2.13;;;23.20;70.90;;;;;;5045012;28;20013;-76
2021/06/10 11:35:33;;;;;;;3.85;2.08;;;23.20;71.00;;;;;;5062005;28;20085;-76
2021/06/10 11:38:00;;;;;;;4.85;2.15;;;23.20;70.90;;;;;;5060607;28;20393;-76
2021/06/10 11:40:26;;;;;;;3.65;2.00;;;23.10;70.90;;;;;;5060747;28;20023;-76
2021/06/10 11:42:51;;;;;;;3.35;1.75;;;23.20;71.50;;;;;;5043789;28;20040;-76
2021/06/10 11:45:22;;;;;;;3.60;1.95;;;23.20;71.00;;;;;;5060524;28;20374;-76
2021/06/10 11:47:49;;;;;;;3.55;2.03;;;23.20;71.00;;;;;;5060182;28;20511;-76
2021/06/10 11:51:27;;;;;;;3.70;2.25;;;23.20;70.50;;;;;;5115026;27;20706;-76
2021/06/10 11:53:55;;;;;;;3.80;2.22;;;23.20;71.00;;;;;;5097916;28;20024;-76
2021/06/10 11:56:27;;;;;;;3.55;1.90;;;23.20;71.00;;;;;;5080818;28;20028;-76
2021/06/10 11:58:55;;;;;;;3.72;2.20;;;23.20;71.00;;;;;;5080661;28;20020;-76
2021/06/10 12:01:21;;;;;;;3.88;2.00;;;23.20;71.00;;;;;;5097765;28;20057;-76
2021/06/10 12:03:47;;;;;;;3.45;2.05;;;23.20;70.90;;;;;;5081051;28;20533;-78
2021/06/10 12:06:13;;;;;;;4.68;2.00;;;23.20;70.90;;;;;;5080925;28;20020;-76
2021/06/10 12:08:42;;;;;;;3.67;2.00;;;23.20;70.90;;;;;;5075132;28;20387;-76
2021/06/10 12:11:09;;;;;;;4.97;2.40;;;23.20;70.90;;;;;;5087767;28;20166;-80
2021/06/10 12:13:35;;;;;;;4.18;2.17;;;23.20;70.90;;;;;;5092357;28;20103;-76
2021/06/10 12:16:04;;;;;;;5.18;1.95;;;23.20;70.90;;;;;;5078970;28;20112;-77
2021/06/10 12:18:30;;;;;;;4.00;2.25;;;23.20;70.90;;;;;;5078809;28;20017;-76
2021/06/10 12:21:04;;;;;;;3.53;2.10;;;23.20;70.80;;;;;;5087235;28;20013;-76
2021/06/10 12:23:39;;;;;;;3.90;2.42;;;23.20;70.80;;;;;;5076452;28;20040;-76
2021/06/10 12:26:05;;;;;;;4.78;2.45;;;23.20;70.70;;;;;;5075658;28;20028;-77
2021/06/10 12:28:42;;;;;;;7.60;3.08;;;23.20;70.70;;;;;;5079822;28;20051;-77
2021/06/10 12:32:52;;;;;;;4.40;3.03;;;23.20;70.20;;;;;;5116916;27;20401;-78
2021/06/10 12:35:19;;;;;;;9.57;3.58;;;23.20;70.60;;;;;;5098729;28;20028;-79
2021/06/10 12:37:52;;;;;;;5.07;3.70;;;23.30;70.80;;;;;;5076526;28;20044;-77
2021/06/10 12:40:18;;;;;;;4.70;3.47;;;23.30;70.70;;;;;;5087531;28;20481;-77
2021/06/10 12:43:29;;;;;;;7.35;3.25;;;23.30;70.30;;;;;;5089055;28;20028;-77
2021/06/10 12:46:23;;;;;;;5.93;3.63;;;23.30;69.60;;;;;;5106270;27;20485;-76
2021/06/10 12:48:56;;;;;;;5.30;3.20;;;23.30;70.20;;;;;;5087768;28;20031;-76
2021/06/10 12:51:25;;;;;;;5.18;3.58;;;23.30;70.10;;;;;;5053729;28;20013;-75
2021/06/10 12:54:00;;;;;;;5.95;3.53;;;23.40;70.00;;;;;;5088134;28;20059;-76
2021/06/10 12:56:52;;;;;;;4.63;3.38;;;23.30;69.80;;;;;;5083313;28;20034;-76
2021/06/10 12:59:32;;;;;;;6.85;3.38;;;23.40;69.90;;;;;;5087698;28;20042;-77
2021/06/10 13:02:18;;;;;;;4.97;3.55;;;23.40;69.90;;;;;;5088008;28;20016;-76
2021/06/10 13:04:49;;;;;;;4.80;3.38;;;23.40;69.90;;;;;;5088578;28;20101;-76
2021/06/10 13:07:36;;;;;;;7.05;3.80;;;23.30;69.60;;;;;;5088135;28;20029;-75
2021/06/10 13:10:09;;;;;;;7.20;3.67;;;23.30;69.60;;;;;;5071640;28;20085;-76
2021/06/10 13:12:45;;;;;;;8.03;4.37;;;23.40;69.70;;;;;;5078687;28;20028;-76
2021/06/10 13:15:16;;;;;;;10.32;4.40;;;23.40;69.80;;;;;;5079008;28;20313;-78
2021/06/10 13:17:50;;;;;;;7.00;3.90;;;23.40;69.80;;;;;;5078303;28;20458;-76
2021/06/10 13:20:55;;;;;;;10.50;4.03;;;23.40;69.60;;;;;;5080010;28;20024;-76
2021/06/10 13:23:27;;;;;;;;;;;23.40;69.50;;;;;;5080716;28;20024;-78
2021/06/10 13:26:09;;;;;;;7.63;3.95;;;23.40;69.50;;;;;;5079874;28;19969;-86
2021/06/10 13:28:35;;;;;;;5.32;3.65;;;23.40;69.30;;;;;;5074423;28;20088;-83
2021/06/10 13:31:25;;;;;;;4.93;3.78;;;23.40;69.20;;;;;;5060047;28;20020;-88
2021/06/10 13:33:52;;;;;;;9.05;4.00;;;23.40;69.20;;;;;;5058719;28;20117;-79
2021/06/10 13:36:28;;;;;;;10.75;4.43;;;23.40;69.10;;;;;;5076695;28;20048;-79
2021/06/10 13:38:54;;;;;;;6.40;3.90;;;23.50;69.20;;;;;;5054578;28;20059;-83
2021/06/10 13:41:21;;;;;;;13.38;4.47;;;23.50;69.20;;;;;;5052304;28;20024;-81
2021/06/10 13:43:47;;;;;;;8.23;5.03;;;23.40;69.20;;;;;;5050656;28;20017;-80
2021/06/10 13:46:13;;;;;;;9.35;4.07;;;23.40;69.20;;;;;;5068032;28;20056;-85
2021/06/10 13:48:39;;;;;;;7.20;4.50;;;23.50;69.20;;;;;;5058491;28;20063;-83
2021/06/10 13:51:05;;;;;;;7.75;4.45;;;23.40;69.20;;;;;;5052714;28;20060;-81
2021/06/10 13:53:31;;;;;;;7.65;3.83;;;23.40;69.20;;;;;;5058902;28;20026;-82
2021/06/10 13:55:56;;;;;;;9.35;4.47;;;23.40;69.30;;;;;;5051108;28;20017;-86
2021/06/10 13:58:22;;;;;;;7.30;4.40;;;23.40;69.30;;;;;;5051478;28;20029;-82
2021/06/10 14:00:48;;;;;;;8.57;3.83;;;23.40;69.30;;;;;;5040811;28;20517;-83
2021/06/10 14:03:13;;;;;;;9.73;5.15;;;23.40;69.40;;;;;;5032004;28;20649;-85
2021/06/10 14:05:39;;;;;;;6.10;3.80;;;23.40;69.40;;;;;;5043890;28;20036;-83
2021/06/10 14:08:05;;;;;;;7.95;4.45;;;23.40;69.40;;;;;;5045612;28;20020;-85
2021/06/10 14:10:31;;;;;;;7.13;4.28;;;23.40;69.40;;;;;;5053904;28;20047;-85
2021/06/10 14:12:56;;;;;;;6.30;3.97;;;23.40;69.40;;;;;;5041542;28;20035;-81
2021/06/10 14:15:22;;;;;;;6.60;3.97;;;23.40;69.40;;;;;;5047175;28;20464;-85
2021/06/10 14:17:48;;;;;;;8.35;4.60;;;23.40;69.50;;;;;;5055206;28;20075;-86
2021/06/10 14:20:14;;;;;;;6.32;3.90;;;23.40;69.50;;;;;;5033368;28;20449;-85
2021/06/10 14:22:40;;;;;;;7.13;4.28;;;23.40;69.50;;;;;;5053164;28;20103;-83
2021/06/10 14:25:06;;;;;;;6.90;3.85;;;23.40;69.50;;;;;;5044217;28;20116;-81
2021/06/10 14:27:31;;;;;;;7.53;4.10;;;23.40;69.50;;;;;;5040908;28;20018;-83
2021/06/10 14:32:41;;;;;;;6.97;3.95;;;23.40;69.60;;;;;;5050264;28;20086;-83
2021/06/10 14:35:08;;;;;;;5.25;3.65;;;23.40;69.60;;;;;;5067841;28;20033;-83
2021/06/10 14:37:41;;;;;;;5.07;3.58;;;23.40;69.70;;;;;;5038213;28;20017;-83
2021/06/10 14:40:08;;;;;;;5.97;3.92;;;23.40;69.70;;;;;;5054699;28;20115;-82
2021/06/10 14:42:34;;;;;;;6.95;3.95;;;23.40;69.70;;;;;;5040588;28;20746;-82
2021/06/10 14:45:00;;;;;;;6.07;3.90;;;23.40;69.70;;;;;;5040186;28;20131;-85
2021/06/10 14:47:25;;;;;;;5.55;3.70;;;23.40;69.70;;;;;;5042459;28;20056;-85
2021/06/10 14:49:52;;;;;;;6.60;3.92;;;23.40;69.70;;;;;;5038990;28;20021;-81
2021/06/10 14:52:18;;;;;;;5.57;3.75;;;23.40;69.80;;;;;;5050870;28;20679;-83
2021/06/10 14:54:46;;;;;;;6.45;4.60;;;23.30;69.80;;;;;;5052648;28;20044;-85
2021/06/10 14:57:14;;;;;;;6.72;4.45;;;23.40;70.00;;;;;;5057884;28;21052;-80
2021/06/10 14:59:40;;;;;;;9.65;4.03;;;23.40;70.00;;;;;;5032313;28;20413;-80
2021/06/10 15:02:07;;;;;;;10.65;4.00;;;23.40;70.00;;;;;;5040849;28;20039;-80
2021/06/10 15:04:34;;;;;;;7.65;4.28;;;23.40;69.90;;;;;;5058663;28;20400;-79
2021/06/10 15:09:05;;;;;;;6.22;3.63;;;23.40;69.50;;;;;;5098947;27;20430;-80
2021/06/10 15:11:31;;;;;;;5.53;3.55;;;23.40;70.00;;;;;;5072915;28;20031;-79
2021/06/10 15:13:56;;;;;;;7.70;3.97;;;23.40;70.00;;;;;;5073901;28;20024;-80
2021/06/10 15:16:22;;;;;;;7.05;3.90;;;23.40;70.00;;;;;;5040621;28;20802;-81
2021/06/10 15:18:47;;;;;;;6.00;3.50;;;23.40;70.00;;;;;;5057607;28;20033;-80
2021/06/10 15:21:13;;;;;;;8.32;3.97;;;23.40;70.00;;;;;;5056930;28;20735;-80
2021/06/10 15:23:39;;;;;;;6.63;3.50;;;23.40;70.00;;;;;;5073537;28;20021;-80
2021/06/10 15:26:06;;;;;;;6.97;3.80;;;23.40;70.00;;;;;;5040541;28;20119;-81
2021/06/10 15:30:35;;;;;;;5.53;3.60;;;23.40;69.60;;;;;;5111433;27;20411;-79
2021/06/10 15:33:01;;;;;;;5.60;3.65;;;23.40;70.10;;;;;;5077333;28;20035;-80
2021/06/10 15:35:27;;;;;;;9.73;3.88;;;23.40;70.10;;;;;;5094327;28;20133;-81
2021/06/10 15:37:53;;;;;;;5.63;3.72;;;23.40;70.10;;;;;;5096503;27;20063;-80
2021/06/10 15:40:18;;;;;;;5.68;3.72;;;23.40;70.10;;;;;;5094692;28;20024;-83
2021/06/10 15:42:44;;;;;;;5.95;3.80;;;23.40;70.10;;;;;;5078270;28;20821;-81
2021/06/10 15:45:10;;;;;;;7.25;4.18;;;23.40;70.10;;;;;;5094575;28;20039;-79
2021/06/10 15:47:35;;;;;;;5.65;3.97;;;23.40;70.10;;;;;;5060457;28;20015;-80
2021/06/10 15:50:01;;;;;;;5.75;3.90;;;23.40;70.20;;;;;;5077634;28;20041;-78
2021/06/10 15:52:27;;;;;;;8.07;3.55;;;23.40;70.10;;;;;;5060609;28;20024;-78
2021/06/10 15:54:52;;;;;;;5.50;3.60;;;23.40;70.10;;;;;;5061004;28;20611;-80
2021/06/10 15:57:18;;;;;;;5.10;3.40;;;23.40;70.10;;;;;;5061219;28;20028;-81
2021/06/10 15:59:43;;;;;;;4.93;3.13;;;23.40;70.00;;;;;;5051250;28;20876;-81
2021/06/10 16:02:09;;;;;;;6.72;3.70;;;23.40;69.90;;;;;;5057721;28;20721;-84
2021/06/10 16:04:35;;;;;;;6.68;3.65;;;23.40;69.90;;;;;;5058059;28;20408;-85
2021/06/10 16:07:00;;;;;;;6.07;3.42;;;23.40;69.90;;;;;;5074056;28;20035;-80
2021/06/10 16:09:26;;;;;;;6.90;3.70;;;23.40;69.90;;;;;;5081847;28;20136;-83
2021/06/10 16:11:51;;;;;;;7.57;3.63;;;23.40;69.90;;;;;;5097192;28;20020;-83
2021/06/10 16:14:17;;;;;;;16.83;4.32;;;23.40;69.90;;;;;;5078619;28;20695;-80
2021/06/10 16:16:43;;;;;;;10.40;3.75;;;23.40;69.90;;;;;;5079395;28;20020;-83
2021/06/10 16:19:08;;;;;;;8.98;4.25;;;23.50;69.90;;;;;;5079346;28;20024;-81
2021/06/10 16:21:34;;;;;;;7.30;3.40;;;23.50;69.70;;;;;;5077493;28;20028;-77
2021/06/10 16:23:59;;;;;;;6.03;3.42;;;23.50;69.70;;;;;;5094483;28;20028;-77
2021/06/10 16:26:25;;;;;;;5.35;3.50;;;23.50;69.80;;;;;;5094501;28;20032;-80
2021/06/10 16:28:51;;;;;;;7.65;3.53;;;23.50;69.80;;;;;;5076884;28;20043;-81
2021/06/10 16:31:17;;;;;;;7.18;3.70;;;23.50;69.70;;;;;;5094194;28;20027;-84
2021/06/10 16:33:43;;;;;;;10.13;3.28;;;23.50;69.70;;;;;;5077644;28;20036;-84
2021/06/10 16:36:09;;;;;;;5.85;3.28;;;23.50;69.70;;;;;;5060337;28;20031;-84
2021/06/10 16:38:35;;;;;;;10.18;3.33;;;23.50;69.80;;;;;;5073121;28;20098;-85
2021/06/10 16:41:00;;;;;;;5.10;3.00;;;23.50;69.80;;;;;;5050954;28;20168;-81
2021/06/10 16:43:27;;;;;;;5.97;3.45;;;23.50;70.30;;;;;;5063077;28;20119;-84
2021/06/10 16:45:53;;;;;;;6.13;3.90;;;23.60;69.80;;;;;;5047614;28;20031;-82
2021/06/10 16:48:18;;;;;;;5.78;3.33;;;23.60;69.70;;;;;;5080077;28;20752;-78
2021/06/10 16:50:44;;;;;;;4.90;3.13;;;23.60;69.70;;;;;;5080157;28;20119;-79
2021/06/10 16:53:15;;;;;;;5.95;3.50;;;23.60;69.80;;;;;;5057815;28;20024;-78
2021/06/10 16:55:41;;;;;;;6.10;3.10;;;23.50;69.80;;;;;;5061116;28;20517;-78
2021/06/10 16:58:06;;;;;;;7.20;3.60;;;23.50;69.90;;;;;;5046018;28;20122;-78
2021/06/10 17:00:36;;;;;;;5.85;3.45;;;23.50;70.00;;;;;;5063290;28;20459;-79
2021/06/10 17:05:29;;;;;;;5.78;3.03;;;23.50;70.00;;;;;;5073857;28;20113;-80
2021/06/10 17:07:59;;;;;;;5.40;3.20;;;23.50;70.10;;;;;;5026546;28;20032;-78
2021/06/10 17:10:25;;;;;;;5.50;3.08;;;23.50;70.10;;;;;;5043633;28;20438;-79
2021/06/10 17:12:50;;;;;;;5.63;3.13;;;23.50;70.20;;;;;;5043921;28;20078;-79
2021/06/10 17:15:16;;;;;;;6.13;3.45;;;23.40;70.20;;;;;;5074240;28;20028;-78
2021/06/10 17:17:42;;;;;;;4.95;3.30;;;23.50;70.30;;;;;;5060307;28;20024;-78